sensor_id;sensor_type;location;lat;lon;timestamp;P1;durP1;ratioP1;P2;durP2;ratioP2
15899;SDS011;8048;50.644;6.184;2022-12-10T00:00:37;13.77;;;10.47;;
15899;SDS011;8048;50.644;6.184;2022-12-10T00:03:02;9.90;;;8.40;;
15899;SDS011;8048;50.644;6.184;2022-12-10T00:05:29;13.00;;;9.85;;
15899;SDS011;8048;50.644;6.184;2022-12-10T00:07:54;17.10;;;11.53;;
15899;SDS011;8048;50.644;6.184;2022-12-10T00:10:20;13.27;;;10.07;;
15899;SDS011;8048;50.644;6.184;2022-12-10T00:12:45;16.17;;;10.77;;
15899;SDS011;8048;50.644;6.184;2022-12-10T00:15:11;13.77;;;10.00;;
15899;SDS011;8048;50.644;6.184;2022-12-10T00:17:36;10.53;;;9.43;;
15899;SDS011;8048;50.644;6.184;2022-12-10T00:20:02;13.30;;;8.73;;
15899;SDS011;8048;50.644;6.184;2022-12-10T00:22:28;16.10;;;10.70;;
15899;SDS011;8048;50.644;6.184;2022-12-10T00:24:53;25.87;;;17.40;;
15899;SDS011;8048;50.644;6.184;2022-12-10T00:27:19;21.00;;;14.60;;
15899;SDS011;8048;50.644;6.184;2022-12-10T00:29:45;18.83;;;10.98;;
15899;SDS011;8048;50.644;6.184;2022-12-10T00:32:10;14.23;;;11.70;;
15899;SDS011;8048;50.644;6.184;2022-12-10T00:34:36;16.80;;;12.67;;
15899;SDS011;8048;50.644;6.184;2022-12-10T00:37:01;16.40;;;12.33;;
15899;SDS011;8048;50.644;6.184;2022-12-10T00:39:27;17.97;;;11.40;;
15899;SDS011;8048;50.644;6.184;2022-12-10T00:41:52;17.23;;;12.47;;
15899;SDS011;8048;50.644;6.184;2022-12-10T00:44:18;17.53;;;13.20;;
15899;SDS011;8048;50.644;6.184;2022-12-10T00:46:44;24.70;;;15.07;;
15899;SDS011;8048;50.644;6.184;2022-12-10T00:49:09;16.30;;;12.47;;
15899;SDS011;8048;50.644;6.184;2022-12-10T00:51:35;21.20;;;11.60;;
15899;SDS011;8048;50.644;6.184;2022-12-10T00:54:01;16.43;;;11.80;;
15899;SDS011;8048;50.644;6.184;2022-12-10T00:56:27;18.93;;;12.00;;
15899;SDS011;8048;50.644;6.184;2022-12-10T00:58:57;15.52;;;10.55;;
15899;SDS011;8048;50.644;6.184;2022-12-10T01:01:24;16.70;;;10.32;;
15899;SDS011;8048;50.644;6.184;2022-12-10T01:03:54;15.68;;;12.05;;
15899;SDS011;8048;50.644;6.184;2022-12-10T01:06:23;16.15;;;11.05;;
15899;SDS011;8048;50.644;6.184;2022-12-10T01:08:55;20.73;;;16.58;;
15899;SDS011;8048;50.644;6.184;2022-12-10T01:11:24;13.18;;;10.02;;
15899;SDS011;8048;50.644;6.184;2022-12-10T01:13:52;17.15;;;11.10;;
15899;SDS011;8048;50.644;6.184;2022-12-10T01:16:19;17.50;;;11.20;;
15899;SDS011;8048;50.644;6.184;2022-12-10T01:18:46;13.90;;;9.05;;
15899;SDS011;8048;50.644;6.184;2022-12-10T01:21:14;17.25;;;10.63;;
15899;SDS011;8048;50.644;6.184;2022-12-10T01:23:43;11.52;;;8.65;;
15899;SDS011;8048;50.644;6.184;2022-12-10T01:26:11;15.27;;;11.80;;
15899;SDS011;8048;50.644;6.184;2022-12-10T01:28:39;12.05;;;9.18;;
15899;SDS011;8048;50.644;6.184;2022-12-10T01:31:06;14.48;;;9.43;;
15899;SDS011;8048;50.644;6.184;2022-12-10T01:33:34;14.07;;;12.02;;
15899;SDS011;8048;50.644;6.184;2022-12-10T01:36:02;12.10;;;9.45;;
15899;SDS011;8048;50.644;6.184;2022-12-10T01:38:38;17.00;;;11.50;;
15899;SDS011;8048;50.644;6.184;2022-12-10T01:41:05;15.02;;;9.57;;
15899;SDS011;8048;50.644;6.184;2022-12-10T01:46:15;17.05;;;10.05;;
15899;SDS011;8048;50.644;6.184;2022-12-10T01:48:41;18.30;;;11.43;;
15899;SDS011;8048;50.644;6.184;2022-12-10T01:51:07;14.60;;;10.93;;
15899;SDS011;8048;50.644;6.184;2022-12-10T01:53:33;17.77;;;10.40;;
15899;SDS011;8048;50.644;6.184;2022-12-10T01:55:58;16.50;;;10.93;;
15899;SDS011;8048;50.644;6.184;2022-12-10T01:58:24;17.90;;;11.90;;
15899;SDS011;8048;50.644;6.184;2022-12-10T02:00:53;12.30;;;9.87;;
15899;SDS011;8048;50.644;6.184;2022-12-10T02:03:34;15.68;;;10.63;;
15899;SDS011;8048;50.644;6.184;2022-12-10T02:06:48;14.57;;;9.85;;
15899;SDS011;8048;50.644;6.184;2022-12-10T02:09:09;20.33;;;10.30;;
15899;SDS011;8048;50.644;6.184;2022-12-10T02:11:43;19.17;;;9.18;;
15899;SDS011;8048;50.644;6.184;2022-12-10T02:16:50;18.30;;;11.10;;
15899;SDS011;8048;50.644;6.184;2022-12-10T02:19:26;17.60;;;10.00;;
15899;SDS011;8048;50.644;6.184;2022-12-10T02:22:09;16.08;;;11.63;;
15899;SDS011;8048;50.644;6.184;2022-12-10T02:24:36;21.80;;;15.48;;
15899;SDS011;8048;50.644;6.184;2022-12-10T02:27:06;22.00;;;13.75;;
15899;SDS011;8048;50.644;6.184;2022-12-10T02:29:43;23.75;;;15.02;;
15899;SDS011;8048;50.644;6.184;2022-12-10T02:32:12;13.65;;;11.15;;
15899;SDS011;8048;50.644;6.184;2022-12-10T02:34:46;19.05;;;13.35;;
15899;SDS011;8048;50.644;6.184;2022-12-10T02:37:18;19.90;;;13.95;;
15899;SDS011;8048;50.644;6.184;2022-12-10T02:40:03;20.42;;;13.10;;
15899;SDS011;8048;50.644;6.184;2022-12-10T02:42:32;26.25;;;15.65;;
15899;SDS011;8048;50.644;6.184;2022-12-10T02:45:02;18.73;;;12.93;;
15899;SDS011;8048;50.644;6.184;2022-12-10T02:47:29;21.08;;;12.02;;
15899;SDS011;8048;50.644;6.184;2022-12-10T02:49:55;21.45;;;12.00;;
15899;SDS011;8048;50.644;6.184;2022-12-10T02:52:23;15.75;;;10.93;;
15899;SDS011;8048;50.644;6.184;2022-12-10T02:54:49;15.52;;;10.90;;
15899;SDS011;8048;50.644;6.184;2022-12-10T02:57:23;20.95;;;13.32;;
15899;SDS011;8048;50.644;6.184;2022-12-10T03:11:05;16.67;;;11.25;;
15899;SDS011;8048;50.644;6.184;2022-12-10T03:13:51;18.92;;;12.40;;
15899;SDS011;8048;50.644;6.184;2022-12-10T03:16:24;17.63;;;12.68;;
15899;SDS011;8048;50.644;6.184;2022-12-10T03:18:55;14.90;;;10.63;;
15899;SDS011;8048;50.644;6.184;2022-12-10T03:21:22;15.68;;;11.05;;
15899;SDS011;8048;50.644;6.184;2022-12-10T03:23:50;23.60;;;13.38;;
15899;SDS011;8048;50.644;6.184;2022-12-10T03:26:16;16.47;;;11.97;;
15899;SDS011;8048;50.644;6.184;2022-12-10T03:28:50;18.17;;;10.52;;
15899;SDS011;8048;50.644;6.184;2022-12-10T03:31:22;19.98;;;11.88;;
15899;SDS011;8048;50.644;6.184;2022-12-10T03:33:48;18.38;;;11.07;;
15899;SDS011;8048;50.644;6.184;2022-12-10T03:36:15;20.23;;;11.00;;
15899;SDS011;8048;50.644;6.184;2022-12-10T03:38:43;15.05;;;10.32;;
15899;SDS011;8048;50.644;6.184;2022-12-10T03:41:09;20.63;;;11.93;;
15899;SDS011;8048;50.644;6.184;2022-12-10T03:43:34;17.37;;;12.37;;
15899;SDS011;8048;50.644;6.184;2022-12-10T03:46:00;20.90;;;11.53;;
15899;SDS011;8048;50.644;6.184;2022-12-10T03:48:26;17.10;;;12.60;;
15899;SDS011;8048;50.644;6.184;2022-12-10T03:50:51;20.13;;;10.90;;
15899;SDS011;8048;50.644;6.184;2022-12-10T03:53:17;15.00;;;9.40;;
15899;SDS011;8048;50.644;6.184;2022-12-10T03:55:42;20.53;;;11.70;;
15899;SDS011;8048;50.644;6.184;2022-12-10T03:58:08;17.80;;;10.10;;
15899;SDS011;8048;50.644;6.184;2022-12-10T04:00:33;18.53;;;10.90;;
15899;SDS011;8048;50.644;6.184;2022-12-10T04:02:59;15.80;;;10.00;;
15899;SDS011;8048;50.644;6.184;2022-12-10T04:05:24;16.10;;;10.00;;
15899;SDS011;8048;50.644;6.184;2022-12-10T04:07:50;16.30;;;10.17;;
15899;SDS011;8048;50.644;6.184;2022-12-10T04:10:15;21.87;;;11.63;;
15899;SDS011;8048;50.644;6.184;2022-12-10T04:12:41;21.97;;;10.80;;
15899;SDS011;8048;50.644;6.184;2022-12-10T04:15:07;20.43;;;11.43;;
15899;SDS011;8048;50.644;6.184;2022-12-10T04:17:51;15.30;;;10.32;;
15899;SDS011;8048;50.644;6.184;2022-12-10T04:20:17;22.13;;;12.77;;
15899;SDS011;8048;50.644;6.184;2022-12-10T04:23:01;19.63;;;12.07;;
15899;SDS011;8048;50.644;6.184;2022-12-10T04:25:45;21.58;;;12.30;;
15899;SDS011;8048;50.644;6.184;2022-12-10T04:28:29;23.75;;;14.02;;
15899;SDS011;8048;50.644;6.184;2022-12-10T04:30:55;21.37;;;13.00;;
15899;SDS011;8048;50.644;6.184;2022-12-10T04:33:20;14.90;;;11.10;;
15899;SDS011;8048;50.644;6.184;2022-12-10T04:35:46;15.87;;;10.20;;
15899;SDS011;8048;50.644;6.184;2022-12-10T04:38:11;14.80;;;10.37;;
15899;SDS011;8048;50.644;6.184;2022-12-10T04:40:37;18.27;;;10.73;;
15899;SDS011;8048;50.644;6.184;2022-12-10T04:43:02;14.90;;;11.53;;
15899;SDS011;8048;50.644;6.184;2022-12-10T04:45:28;15.17;;;9.03;;
15899;SDS011;8048;50.644;6.184;2022-12-10T04:47:53;20.57;;;12.37;;
15899;SDS011;8048;50.644;6.184;2022-12-10T04:50:19;13.30;;;10.17;;
15899;SDS011;8048;50.644;6.184;2022-12-10T04:52:44;16.80;;;9.80;;
15899;SDS011;8048;50.644;6.184;2022-12-10T04:55:10;14.90;;;10.17;;
15899;SDS011;8048;50.644;6.184;2022-12-10T04:57:35;15.57;;;9.73;;
15899;SDS011;8048;50.644;6.184;2022-12-10T05:00:02;15.93;;;9.90;;
15899;SDS011;8048;50.644;6.184;2022-12-10T05:02:28;17.90;;;10.27;;
15899;SDS011;8048;50.644;6.184;2022-12-10T05:04:53;14.23;;;11.80;;
15899;SDS011;8048;50.644;6.184;2022-12-10T05:07:19;11.80;;;8.13;;
15899;SDS011;8048;50.644;6.184;2022-12-10T05:09:44;14.30;;;10.47;;
15899;SDS011;8048;50.644;6.184;2022-12-10T05:12:10;17.63;;;10.27;;
15899;SDS011;8048;50.644;6.184;2022-12-10T05:14:35;13.10;;;9.23;;
15899;SDS011;8048;50.644;6.184;2022-12-10T05:17:01;19.57;;;12.60;;
15899;SDS011;8048;50.644;6.184;2022-12-10T05:19:27;16.80;;;9.47;;
15899;SDS011;8048;50.644;6.184;2022-12-10T05:21:52;19.83;;;10.50;;
15899;SDS011;8048;50.644;6.184;2022-12-10T05:24:38;13.05;;;9.70;;
15899;SDS011;8048;50.644;6.184;2022-12-10T05:27:03;14.47;;;9.20;;
15899;SDS011;8048;50.644;6.184;2022-12-10T05:29:30;18.65;;;9.57;;
15899;SDS011;8048;50.644;6.184;2022-12-10T05:31:56;18.95;;;8.70;;
15899;SDS011;8048;50.644;6.184;2022-12-10T05:34:22;20.33;;;9.80;;
15899;SDS011;8048;50.644;6.184;2022-12-10T05:36:47;19.67;;;10.67;;
15899;SDS011;8048;50.644;6.184;2022-12-10T05:39:13;18.53;;;10.97;;
15899;SDS011;8048;50.644;6.184;2022-12-10T05:41:38;14.30;;;9.17;;
15899;SDS011;8048;50.644;6.184;2022-12-10T05:44:05;18.92;;;11.93;;
15899;SDS011;8048;50.644;6.184;2022-12-10T05:46:32;13.88;;;8.75;;
15899;SDS011;8048;50.644;6.184;2022-12-10T05:48:59;17.92;;;9.65;;
15899;SDS011;8048;50.644;6.184;2022-12-10T05:51:27;22.30;;;10.57;;
15899;SDS011;8048;50.644;6.184;2022-12-10T05:53:56;17.60;;;11.00;;
15899;SDS011;8048;50.644;6.184;2022-12-10T05:56:23;10.45;;;9.38;;
15899;SDS011;8048;50.644;6.184;2022-12-10T05:58:53;13.55;;;10.25;;
15899;SDS011;8048;50.644;6.184;2022-12-10T06:01:22;19.45;;;11.60;;
15899;SDS011;8048;50.644;6.184;2022-12-10T06:03:49;18.33;;;9.75;;
15899;SDS011;8048;50.644;6.184;2022-12-10T06:06:20;12.50;;;8.50;;
15899;SDS011;8048;50.644;6.184;2022-12-10T06:08:47;16.02;;;8.18;;
15899;SDS011;8048;50.644;6.184;2022-12-10T06:11:13;15.77;;;9.98;;
15899;SDS011;8048;50.644;6.184;2022-12-10T06:13:39;16.43;;;10.27;;
15899;SDS011;8048;50.644;6.184;2022-12-10T06:16:08;14.80;;;9.77;;
15899;SDS011;8048;50.644;6.184;2022-12-10T06:18:36;12.85;;;8.38;;
15899;SDS011;8048;50.644;6.184;2022-12-10T06:21:02;11.98;;;8.00;;
15899;SDS011;8048;50.644;6.184;2022-12-10T06:23:29;15.05;;;10.18;;
15899;SDS011;8048;50.644;6.184;2022-12-10T06:25:54;10.73;;;7.80;;
15899;SDS011;8048;50.644;6.184;2022-12-10T06:28:20;17.17;;;8.83;;
15899;SDS011;8048;50.644;6.184;2022-12-10T06:30:45;18.73;;;10.20;;
15899;SDS011;8048;50.644;6.184;2022-12-10T06:33:11;14.67;;;10.53;;
15899;SDS011;8048;50.644;6.184;2022-12-10T06:35:37;17.40;;;10.20;;
15899;SDS011;8048;50.644;6.184;2022-12-10T06:38:02;16.10;;;9.87;;
15899;SDS011;8048;50.644;6.184;2022-12-10T06:40:28;12.60;;;7.93;;
15899;SDS011;8048;50.644;6.184;2022-12-10T06:42:53;11.70;;;8.43;;
15899;SDS011;8048;50.644;6.184;2022-12-10T06:45:19;9.73;;;7.57;;
15899;SDS011;8048;50.644;6.184;2022-12-10T06:47:44;13.57;;;8.37;;
15899;SDS011;8048;50.644;6.184;2022-12-10T06:50:10;17.23;;;10.80;;
15899;SDS011;8048;50.644;6.184;2022-12-10T06:52:36;21.10;;;10.60;;
15899;SDS011;8048;50.644;6.184;2022-12-10T06:55:01;15.13;;;8.57;;
15899;SDS011;8048;50.644;6.184;2022-12-10T06:57:28;11.60;;;8.63;;
15899;SDS011;8048;50.644;6.184;2022-12-10T06:59:54;16.35;;;7.90;;
15899;SDS011;8048;50.644;6.184;2022-12-10T07:02:19;13.63;;;8.70;;
15899;SDS011;8048;50.644;6.184;2022-12-10T07:04:45;13.73;;;8.67;;
15899;SDS011;8048;50.644;6.184;2022-12-10T07:07:10;11.87;;;8.43;;
15899;SDS011;8048;50.644;6.184;2022-12-10T07:09:36;13.57;;;8.07;;
15899;SDS011;8048;50.644;6.184;2022-12-10T07:12:02;14.63;;;9.63;;
15899;SDS011;8048;50.644;6.184;2022-12-10T07:14:28;17.03;;;9.87;;
15899;SDS011;8048;50.644;6.184;2022-12-10T07:16:54;14.37;;;9.90;;
15899;SDS011;8048;50.644;6.184;2022-12-10T07:19:19;12.87;;;9.10;;
15899;SDS011;8048;50.644;6.184;2022-12-10T07:21:45;10.37;;;8.00;;
15899;SDS011;8048;50.644;6.184;2022-12-10T07:24:12;11.27;;;7.77;;
15899;SDS011;8048;50.644;6.184;2022-12-10T07:26:41;10.38;;;9.30;;
15899;SDS011;8048;50.644;6.184;2022-12-10T07:29:09;15.13;;;8.27;;
15899;SDS011;8048;50.644;6.184;2022-12-10T07:31:38;13.90;;;7.20;;
15899;SDS011;8048;50.644;6.184;2022-12-10T07:34:04;14.40;;;9.90;;
15899;SDS011;8048;50.644;6.184;2022-12-10T07:36:30;9.80;;;6.30;;
15899;SDS011;8048;50.644;6.184;2022-12-10T07:38:55;11.80;;;9.60;;
15899;SDS011;8048;50.644;6.184;2022-12-10T07:41:22;12.00;;;7.47;;
15899;SDS011;8048;50.644;6.184;2022-12-10T07:43:49;11.60;;;8.45;;
15899;SDS011;8048;50.644;6.184;2022-12-10T07:46:22;8.73;;;6.35;;
15899;SDS011;8048;50.644;6.184;2022-12-10T07:48:59;16.00;;;9.07;;
15899;SDS011;8048;50.644;6.184;2022-12-10T07:51:26;10.20;;;8.45;;
15899;SDS011;8048;50.644;6.184;2022-12-10T07:53:52;12.27;;;8.40;;
15899;SDS011;8048;50.644;6.184;2022-12-10T07:56:18;13.60;;;8.48;;
15899;SDS011;8048;50.644;6.184;2022-12-10T07:58:44;8.30;;;6.50;;
15899;SDS011;8048;50.644;6.184;2022-12-10T08:01:11;9.93;;;7.95;;
15899;SDS011;8048;50.644;6.184;2022-12-10T08:03:40;9.30;;;7.20;;
15899;SDS011;8048;50.644;6.184;2022-12-10T08:06:07;15.85;;;8.02;;
15899;SDS011;8048;50.644;6.184;2022-12-10T08:08:36;12.38;;;7.10;;
15899;SDS011;8048;50.644;6.184;2022-12-10T08:11:03;14.85;;;8.80;;
15899;SDS011;8048;50.644;6.184;2022-12-10T08:13:31;14.52;;;6.78;;
15899;SDS011;8048;50.644;6.184;2022-12-10T08:16:01;17.50;;;8.98;;
15899;SDS011;8048;50.644;6.184;2022-12-10T08:18:32;13.00;;;8.15;;
15899;SDS011;8048;50.644;6.184;2022-12-10T08:21:01;16.80;;;8.52;;
15899;SDS011;8048;50.644;6.184;2022-12-10T08:23:33;14.55;;;8.25;;
15899;SDS011;8048;50.644;6.184;2022-12-10T08:26:02;13.90;;;8.63;;
15899;SDS011;8048;50.644;6.184;2022-12-10T08:28:32;19.20;;;10.45;;
15899;SDS011;8048;50.644;6.184;2022-12-10T08:30:58;13.77;;;9.27;;
15899;SDS011;8048;50.644;6.184;2022-12-10T08:33:24;16.90;;;9.43;;
15899;SDS011;8048;50.644;6.184;2022-12-10T08:35:49;15.00;;;9.07;;
15899;SDS011;8048;50.644;6.184;2022-12-10T08:38:15;14.00;;;8.90;;
15899;SDS011;8048;50.644;6.184;2022-12-10T08:40:41;17.97;;;9.97;;
15899;SDS011;8048;50.644;6.184;2022-12-10T08:43:07;12.23;;;8.77;;
15899;SDS011;8048;50.644;6.184;2022-12-10T08:45:33;15.63;;;9.52;;
15899;SDS011;8048;50.644;6.184;2022-12-10T08:48:00;12.63;;;8.93;;
15899;SDS011;8048;50.644;6.184;2022-12-10T08:50:27;14.40;;;10.07;;
15899;SDS011;8048;50.644;6.184;2022-12-10T08:52:52;12.55;;;8.00;;
15899;SDS011;8048;50.644;6.184;2022-12-10T08:55:18;10.93;;;7.60;;
15899;SDS011;8048;50.644;6.184;2022-12-10T08:57:43;15.03;;;7.90;;
15899;SDS011;8048;50.644;6.184;2022-12-10T09:00:09;11.27;;;7.73;;
15899;SDS011;8048;50.644;6.184;2022-12-10T09:02:35;11.75;;;8.20;;
15899;SDS011;8048;50.644;6.184;2022-12-10T09:05:01;17.00;;;10.07;;
15899;SDS011;8048;50.644;6.184;2022-12-10T09:07:26;13.13;;;9.10;;
15899;SDS011;8048;50.644;6.184;2022-12-10T09:09:52;11.63;;;7.60;;
15899;SDS011;8048;50.644;6.184;2022-12-10T09:12:17;13.80;;;9.27;;
15899;SDS011;8048;50.644;6.184;2022-12-10T09:14:43;16.47;;;8.97;;
15899;SDS011;8048;50.644;6.184;2022-12-10T09:17:08;14.60;;;10.33;;
15899;SDS011;8048;50.644;6.184;2022-12-10T09:19:34;11.53;;;9.37;;
15899;SDS011;8048;50.644;6.184;2022-12-10T09:22:00;16.53;;;9.00;;
15899;SDS011;8048;50.644;6.184;2022-12-10T09:24:25;16.53;;;9.43;;
15899;SDS011;8048;50.644;6.184;2022-12-10T09:26:51;14.13;;;10.57;;
15899;SDS011;8048;50.644;6.184;2022-12-10T09:29:16;18.33;;;10.13;;
15899;SDS011;8048;50.644;6.184;2022-12-10T09:31:42;11.93;;;7.90;;
15899;SDS011;8048;50.644;6.184;2022-12-10T09:34:08;14.67;;;8.80;;
15899;SDS011;8048;50.644;6.184;2022-12-10T09:36:33;17.00;;;9.60;;
15899;SDS011;8048;50.644;6.184;2022-12-10T09:38:59;14.43;;;10.13;;
15899;SDS011;8048;50.644;6.184;2022-12-10T09:41:41;14.20;;;9.23;;
15899;SDS011;8048;50.644;6.184;2022-12-10T09:44:34;15.17;;;9.13;;
15899;SDS011;8048;50.644;6.184;2022-12-10T09:47:09;12.73;;;8.67;;
15899;SDS011;8048;50.644;6.184;2022-12-10T09:52:46;16.63;;;10.17;;
15899;SDS011;8048;50.644;6.184;2022-12-10T09:55:15;12.13;;;7.83;;
15899;SDS011;8048;50.644;6.184;2022-12-10T09:57:50;12.13;;;8.00;;
15899;SDS011;8048;50.644;6.184;2022-12-10T10:03:00;12.13;;;7.30;;
15899;SDS011;8048;50.644;6.184;2022-12-10T10:05:30;10.27;;;6.90;;
15899;SDS011;8048;50.644;6.184;2022-12-10T10:08:02;11.70;;;7.90;;
15899;SDS011;8048;50.644;6.184;2022-12-10T10:10:33;7.20;;;6.47;;
15899;SDS011;8048;50.644;6.184;2022-12-10T10:13:09;8.70;;;6.70;;
15899;SDS011;8048;50.644;6.184;2022-12-10T10:15:43;10.40;;;7.37;;
15899;SDS011;8048;50.644;6.184;2022-12-10T10:20:58;7.40;;;6.30;;
15899;SDS011;8048;50.644;6.184;2022-12-10T10:23:25;7.67;;;6.87;;
15899;SDS011;8048;50.644;6.184;2022-12-10T10:25:51;6.73;;;5.63;;
15899;SDS011;8048;50.644;6.184;2022-12-10T10:28:18;5.87;;;5.13;;
15899;SDS011;8048;50.644;6.184;2022-12-10T10:30:45;5.43;;;4.93;;
15899;SDS011;8048;50.644;6.184;2022-12-10T10:33:11;6.83;;;6.07;;
15899;SDS011;8048;50.644;6.184;2022-12-10T10:35:46;7.60;;;6.83;;
15899;SDS011;8048;50.644;6.184;2022-12-10T10:38:22;8.07;;;6.13;;
15899;SDS011;8048;50.644;6.184;2022-12-10T10:40:54;8.23;;;5.90;;
15899;SDS011;8048;50.644;6.184;2022-12-10T10:43:27;8.13;;;7.10;;
15899;SDS011;8048;50.644;6.184;2022-12-10T10:45:58;6.70;;;6.10;;
15899;SDS011;8048;50.644;6.184;2022-12-10T10:48:27;7.43;;;5.60;;
15899;SDS011;8048;50.644;6.184;2022-12-10T10:53:44;11.33;;;6.10;;
15899;SDS011;8048;50.644;6.184;2022-12-10T10:56:16;6.90;;;5.33;;
15899;SDS011;8048;50.644;6.184;2022-12-10T10:58:47;6.23;;;5.43;;
15899;SDS011;8048;50.644;6.184;2022-12-10T11:01:16;9.03;;;5.70;;
15899;SDS011;8048;50.644;6.184;2022-12-10T11:03:57;6.67;;;5.47;;
15899;SDS011;8048;50.644;6.184;2022-12-10T11:06:24;9.73;;;5.93;;
15899;SDS011;8048;50.644;6.184;2022-12-10T11:08:51;6.27;;;5.10;;
15899;SDS011;8048;50.644;6.184;2022-12-10T11:11:40;7.10;;;6.07;;
15899;SDS011;8048;50.644;6.184;2022-12-10T11:14:13;6.20;;;5.33;;
15899;SDS011;8048;50.644;6.184;2022-12-10T11:16:41;5.50;;;5.00;;
15899;SDS011;8048;50.644;6.184;2022-12-10T11:19:16;5.53;;;4.40;;
15899;SDS011;8048;50.644;6.184;2022-12-10T11:21:45;5.57;;;5.07;;
15899;SDS011;8048;50.644;6.184;2022-12-10T11:24:12;5.27;;;4.77;;
15899;SDS011;8048;50.644;6.184;2022-12-10T11:26:43;6.27;;;4.40;;
15899;SDS011;8048;50.644;6.184;2022-12-10T11:51:15;3.50;;;3.10;;
15899;SDS011;8048;50.644;6.184;2022-12-10T11:56:36;4.87;;;4.40;;
15899;SDS011;8048;50.644;6.184;2022-12-10T11:59:15;5.10;;;4.60;;
15899;SDS011;8048;50.644;6.184;2022-12-10T12:13:16;4.50;;;4.20;;
15899;SDS011;8048;50.644;6.184;2022-12-10T12:16:32;6.80;;;4.60;;
15899;SDS011;8048;50.644;6.184;2022-12-10T12:21:20;4.80;;;4.47;;
15899;SDS011;8048;50.644;6.184;2022-12-10T12:26:32;4.53;;;4.13;;
15899;SDS011;8048;50.644;6.184;2022-12-10T12:31:41;4.90;;;4.50;;
15899;SDS011;8048;50.644;6.184;2022-12-10T12:34:20;7.33;;;4.40;;
15899;SDS011;8048;50.644;6.184;2022-12-10T12:36:48;7.70;;;4.07;;
15899;SDS011;8048;50.644;6.184;2022-12-10T12:44:44;6.73;;;6.03;;
15899;SDS011;8048;50.644;6.184;2022-12-10T12:47:41;7.57;;;6.10;;
15899;SDS011;8048;50.644;6.184;2022-12-10T12:50:45;8.07;;;6.50;;
15899;SDS011;8048;50.644;6.184;2022-12-10T12:53:14;7.10;;;6.10;;
15899;SDS011;8048;50.644;6.184;2022-12-10T12:55:46;8.63;;;6.50;;
15899;SDS011;8048;50.644;6.184;2022-12-10T13:01:20;8.13;;;7.13;;
15899;SDS011;8048;50.644;6.184;2022-12-10T13:03:56;10.63;;;7.73;;
15899;SDS011;8048;50.644;6.184;2022-12-10T13:06:24;10.67;;;7.23;;
15899;SDS011;8048;50.644;6.184;2022-12-10T13:11:41;10.90;;;7.90;;
15899;SDS011;8048;50.644;6.184;2022-12-10T13:19:15;16.17;;;11.90;;
15899;SDS011;8048;50.644;6.184;2022-12-10T13:37:35;19.10;;;14.83;;
15899;SDS011;8048;50.644;6.184;2022-12-10T13:43:28;17.77;;;12.17;;
15899;SDS011;8048;50.644;6.184;2022-12-10T13:49:23;18.83;;;12.57;;
15899;SDS011;8048;50.644;6.184;2022-12-10T13:51:55;18.60;;;12.80;;
15899;SDS011;8048;50.644;6.184;2022-12-10T14:00:16;16.27;;;11.07;;
15899;SDS011;8048;50.644;6.184;2022-12-10T14:05:43;17.63;;;12.50;;
15899;SDS011;8048;50.644;6.184;2022-12-10T14:08:36;18.77;;;12.07;;
15899;SDS011;8048;50.644;6.184;2022-12-10T14:11:06;15.77;;;10.40;;
15899;SDS011;8048;50.644;6.184;2022-12-10T14:13:42;15.07;;;11.10;;
15899;SDS011;8048;50.644;6.184;2022-12-10T14:16:12;13.87;;;10.57;;
15899;SDS011;8048;50.644;6.184;2022-12-10T14:18:43;17.10;;;11.87;;
15899;SDS011;8048;50.644;6.184;2022-12-10T14:21:13;15.10;;;9.33;;
15899;SDS011;8048;50.644;6.184;2022-12-10T14:23:43;16.97;;;10.70;;
15899;SDS011;8048;50.644;6.184;2022-12-10T14:26:18;17.90;;;11.20;;
15899;SDS011;8048;50.644;6.184;2022-12-10T14:28:47;15.37;;;10.00;;
15899;SDS011;8048;50.644;6.184;2022-12-10T14:31:16;15.20;;;10.83;;
15899;SDS011;8048;50.644;6.184;2022-12-10T14:33:45;14.27;;;9.50;;
15899;SDS011;8048;50.644;6.184;2022-12-10T14:36:16;15.37;;;10.47;;
15899;SDS011;8048;50.644;6.184;2022-12-10T14:38:46;17.90;;;10.80;;
15899;SDS011;8048;50.644;6.184;2022-12-10T14:41:13;15.83;;;10.77;;
15899;SDS011;8048;50.644;6.184;2022-12-10T14:43:43;18.37;;;10.27;;
15899;SDS011;8048;50.644;6.184;2022-12-10T14:46:17;14.90;;;8.70;;
15899;SDS011;8048;50.644;6.184;2022-12-10T14:48:49;17.80;;;11.23;;
15899;SDS011;8048;50.644;6.184;2022-12-10T14:51:18;13.67;;;9.07;;
15899;SDS011;8048;50.644;6.184;2022-12-10T14:53:45;16.63;;;11.30;;
15899;SDS011;8048;50.644;6.184;2022-12-10T14:56:26;13.10;;;9.27;;
15899;SDS011;8048;50.644;6.184;2022-12-10T14:59:01;18.20;;;10.07;;
15899;SDS011;8048;50.644;6.184;2022-12-10T15:01:38;20.90;;;11.00;;
15899;SDS011;8048;50.644;6.184;2022-12-10T15:04:11;16.80;;;11.00;;
15899;SDS011;8048;50.644;6.184;2022-12-10T15:06:40;15.53;;;9.97;;
15899;SDS011;8048;50.644;6.184;2022-12-10T15:09:12;17.67;;;10.60;;
15899;SDS011;8048;50.644;6.184;2022-12-10T15:11:40;16.60;;;10.27;;
15899;SDS011;8048;50.644;6.184;2022-12-10T15:14:06;15.07;;;9.77;;
15899;SDS011;8048;50.644;6.184;2022-12-10T15:16:42;17.60;;;10.83;;
15899;SDS011;8048;50.644;6.184;2022-12-10T15:19:19;14.70;;;10.30;;
15899;SDS011;8048;50.644;6.184;2022-12-10T15:21:48;24.53;;;11.60;;
15899;SDS011;8048;50.644;6.184;2022-12-10T15:24:18;17.03;;;11.07;;
15899;SDS011;8048;50.644;6.184;2022-12-10T15:26:45;16.87;;;11.07;;
15899;SDS011;8048;50.644;6.184;2022-12-10T15:31:48;15.97;;;9.23;;
15899;SDS011;8048;50.644;6.184;2022-12-10T15:34:14;12.00;;;8.63;;
15899;SDS011;8048;50.644;6.184;2022-12-10T15:36:43;13.67;;;9.10;;
15899;SDS011;8048;50.644;6.184;2022-12-10T15:39:28;19.00;;;10.33;;
15899;SDS011;8048;50.644;6.184;2022-12-10T15:42:00;14.57;;;8.77;;
15899;SDS011;8048;50.644;6.184;2022-12-10T15:49:23;15.03;;;7.67;;
15899;SDS011;8048;50.644;6.184;2022-12-10T15:51:49;9.80;;;6.47;;
15899;SDS011;8048;50.644;6.184;2022-12-10T15:54:29;17.73;;;8.50;;
15899;SDS011;8048;50.644;6.184;2022-12-10T15:57:14;12.10;;;7.40;;
15899;SDS011;8048;50.644;6.184;2022-12-10T15:59:48;13.33;;;8.83;;
15899;SDS011;8048;50.644;6.184;2022-12-10T16:05:11;9.43;;;6.70;;
15899;SDS011;8048;50.644;6.184;2022-12-10T16:08:00;15.50;;;8.10;;
15899;SDS011;8048;50.644;6.184;2022-12-10T16:10:36;12.77;;;8.43;;
15899;SDS011;8048;50.644;6.184;2022-12-10T16:13:03;15.20;;;7.87;;
15899;SDS011;8048;50.644;6.184;2022-12-10T16:15:33;17.37;;;8.30;;
15899;SDS011;8048;50.644;6.184;2022-12-10T16:18:01;14.43;;;8.13;;
15899;SDS011;8048;50.644;6.184;2022-12-10T16:20:28;12.73;;;9.00;;
15899;SDS011;8048;50.644;6.184;2022-12-10T16:22:55;13.97;;;8.00;;
15899;SDS011;8048;50.644;6.184;2022-12-10T16:25:23;15.37;;;9.40;;
15899;SDS011;8048;50.644;6.184;2022-12-10T16:27:51;10.33;;;7.60;;
15899;SDS011;8048;50.644;6.184;2022-12-10T16:33:03;14.87;;;9.17;;
15899;SDS011;8048;50.644;6.184;2022-12-10T16:35:29;14.20;;;8.00;;
15899;SDS011;8048;50.644;6.184;2022-12-10T16:37:54;11.73;;;7.60;;
15899;SDS011;8048;50.644;6.184;2022-12-10T16:40:23;12.30;;;8.63;;
15899;SDS011;8048;50.644;6.184;2022-12-10T16:42:52;9.77;;;6.47;;
15899;SDS011;8048;50.644;6.184;2022-12-10T16:45:19;10.37;;;7.00;;
15899;SDS011;8048;50.644;6.184;2022-12-10T16:47:44;18.43;;;9.30;;
15899;SDS011;8048;50.644;6.184;2022-12-10T16:50:11;8.93;;;7.27;;
15899;SDS011;8048;50.644;6.184;2022-12-10T16:52:38;11.40;;;6.53;;
15899;SDS011;8048;50.644;6.184;2022-12-10T16:55:04;9.43;;;7.47;;
15899;SDS011;8048;50.644;6.184;2022-12-10T16:57:32;11.50;;;8.23;;
15899;SDS011;8048;50.644;6.184;2022-12-10T16:59:58;12.53;;;8.17;;
15899;SDS011;8048;50.644;6.184;2022-12-10T17:02:23;10.20;;;6.60;;
15899;SDS011;8048;50.644;6.184;2022-12-10T17:04:49;12.20;;;8.37;;
15899;SDS011;8048;50.644;6.184;2022-12-10T17:07:15;12.93;;;7.03;;